Alexandria, IN

10:14 PM EDT on August 30, 2016 (GMT -0400)
Alexandria Fred | | Change Station

Elev 883 ft 40.27 °N, 85.69 °W | Updated 1 minute ago

Rain
Rain Mist
71.1 °F
Feels Like 71.1 °F
N
0.0
Wind Variable Wind from SSE

Today
High -- | Low -- °F
--% Chance of Precip.
Yesterday
High -- | Low -- °F
Precip. -- in
Pressure 30.09 in
Visibility 4.0 miles
Clouds Mostly Cloudy 7000 ft
Overcast 8500 ft
Dew Point 69 °F
Humidity 93%
Rainfall 0.99 in
Snow Depth Not available.
7:08 AM 8:16 PM
Waning Crescent, 2% visible
METAR KMIE 310153Z 06005KT 4SM RA BR BKN070 OVC085 22/21 A3012 RMK AO2 LTG DSNT ALQDS TSB00E15 SLP187 P0034 T02220211
Pressure 30.09 in
Visibility 4.0 miles
Clouds Mostly Cloudy 7000 ft
Overcast 8500 ft
Dew Point 69 °F
Humidity 93%
Rainfall 0.99 in
Snow Depth Not available.
7:08 AM 8:16 PM
Waning Crescent, 2% visible
METAR KMIE 310153Z 06005KT 4SM RA BR BKN070 OVC085 22/21 A3012 RMK AO2 LTG DSNT ALQDS TSB00E15 SLP187 P0034 T02220211

10-Day Weather Forecast

Almanac

Astronomy

Aug. 30, 2016 Rise Set
Actual Time
Civil Twilight
Nautical Twilight
Astronomical Twilight
Moon
Length of Visible Light
Length of Day
Tomorrow will be .
, % of the Moon is Illuminated

Today's Extremes

State Highs State Lows

Community

WunderPhotos

Upload Photos

1,935,993 photos uploaded!

WunderBlog® & News

Nearby

Air Quality

  Air Quality AQ Index Pollutant
Not available.

Snow Depth

Station Depth Elevation

Earthquake Activity

City Distance Mag. Time & Date
Minimum magnitude displayed is 2.5.

Coastal Water Temperatures

Place Temperature

Stations

Nearby Weather Stations

Station Location Temp. Windchill Dew Point Humidity Wind Precip. Elev Updated Type
                   

Watches & Warnings

There are currently no watches in effect.